sensor_id;sensor_type;location;lat;lon;timestamp;P1;durP1;ratioP1;P2;durP2;ratioP2
52718;SDS011;38616;42.140;24.760;2022-12-05T00:02:03;17.20;;;8.70;;
52718;SDS011;38616;42.140;24.760;2022-12-05T00:04:29;16.75;;;8.73;;
52718;SDS011;38616;42.140;24.760;2022-12-05T00:06:54;16.45;;;7.50;;
52718;SDS011;38616;42.140;24.760;2022-12-05T00:09:20;17.60;;;7.50;;
52718;SDS011;38616;42.140;24.760;2022-12-05T00:11:45;14.15;;;7.53;;
52718;SDS011;38616;42.140;24.760;2022-12-05T00:14:11;17.48;;;7.28;;
52718;SDS011;38616;42.140;24.760;2022-12-05T00:16:37;18.02;;;8.77;;
52718;SDS011;38616;42.140;24.760;2022-12-05T00:19:05;17.10;;;7.65;;
52718;SDS011;38616;42.140;24.760;2022-12-05T00:21:33;20.35;;;8.07;;
52718;SDS011;38616;42.140;24.760;2022-12-05T00:24:00;16.48;;;7.68;;
52718;SDS011;38616;42.140;24.760;2022-12-05T00:26:27;13.93;;;7.35;;
52718;SDS011;38616;42.140;24.760;2022-12-05T00:28:55;16.00;;;7.18;;
52718;SDS011;38616;42.140;24.760;2022-12-05T00:31:22;14.15;;;6.85;;
52718;SDS011;38616;42.140;24.760;2022-12-05T00:33:49;12.87;;;6.53;;
52718;SDS011;38616;42.140;24.760;2022-12-05T00:36:19;13.13;;;7.15;;
52718;SDS011;38616;42.140;24.760;2022-12-05T00:38:47;12.55;;;7.20;;
52718;SDS011;38616;42.140;24.760;2022-12-05T00:41:17;15.32;;;7.20;;
52718;SDS011;38616;42.140;24.760;2022-12-05T00:43:47;15.88;;;7.95;;
52718;SDS011;38616;42.140;24.760;2022-12-05T00:46:17;14.65;;;6.30;;
52718;SDS011;38616;42.140;24.760;2022-12-05T00:48:44;12.65;;;6.70;;
52718;SDS011;38616;42.140;24.760;2022-12-05T00:51:11;16.77;;;6.60;;
52718;SDS011;38616;42.140;24.760;2022-12-05T00:53:42;12.73;;;6.68;;
52718;SDS011;38616;42.140;24.760;2022-12-05T00:56:12;12.00;;;6.40;;
52718;SDS011;38616;42.140;24.760;2022-12-05T00:58:39;13.00;;;6.68;;
52718;SDS011;38616;42.140;24.760;2022-12-05T01:01:06;14.48;;;7.25;;
52718;SDS011;38616;42.140;24.760;2022-12-05T01:03:37;15.77;;;6.70;;
52718;SDS011;38616;42.140;24.760;2022-12-05T01:06:03;13.77;;;6.80;;
52718;SDS011;38616;42.140;24.760;2022-12-05T01:08:30;12.15;;;6.85;;
52718;SDS011;38616;42.140;24.760;2022-12-05T01:10:56;15.98;;;7.22;;
52718;SDS011;38616;42.140;24.760;2022-12-05T01:13:22;15.35;;;6.57;;
52718;SDS011;38616;42.140;24.760;2022-12-05T01:15:50;12.05;;;6.28;;
52718;SDS011;38616;42.140;24.760;2022-12-05T01:18:16;13.10;;;6.80;;
52718;SDS011;38616;42.140;24.760;2022-12-05T01:20:42;13.07;;;7.05;;
52718;SDS011;38616;42.140;24.760;2022-12-05T01:23:08;16.15;;;7.32;;
52718;SDS011;38616;42.140;24.760;2022-12-05T01:25:37;14.13;;;6.60;;
52718;SDS011;38616;42.140;24.760;2022-12-05T01:28:04;15.23;;;7.63;;
52718;SDS011;38616;42.140;24.760;2022-12-05T01:30:30;14.25;;;7.13;;
52718;SDS011;38616;42.140;24.760;2022-12-05T01:32:55;15.68;;;6.95;;
52718;SDS011;38616;42.140;24.760;2022-12-05T01:35:20;13.18;;;6.65;;
52718;SDS011;38616;42.140;24.760;2022-12-05T01:37:46;13.73;;;7.80;;
52718;SDS011;38616;42.140;24.760;2022-12-05T01:40:11;14.65;;;7.57;;
52718;SDS011;38616;42.140;24.760;2022-12-05T01:42:37;12.40;;;6.60;;
52718;SDS011;38616;42.140;24.760;2022-12-05T01:45:11;14.75;;;7.13;;
52718;SDS011;38616;42.140;24.760;2022-12-05T01:47:40;13.70;;;6.27;;
52718;SDS011;38616;42.140;24.760;2022-12-05T01:50:06;14.27;;;6.68;;
52718;SDS011;38616;42.140;24.760;2022-12-05T01:52:33;13.93;;;7.28;;
52718;SDS011;38616;42.140;24.760;2022-12-05T01:55:00;15.88;;;7.85;;
52718;SDS011;38616;42.140;24.760;2022-12-05T01:57:31;12.85;;;7.03;;
52718;SDS011;38616;42.140;24.760;2022-12-05T02:00:00;14.63;;;7.50;;
52718;SDS011;38616;42.140;24.760;2022-12-05T02:02:29;14.63;;;6.82;;
52718;SDS011;38616;42.140;24.760;2022-12-05T02:07:51;13.05;;;6.57;;
52718;SDS011;38616;42.140;24.760;2022-12-05T02:10:17;12.23;;;6.05;;
52718;SDS011;38616;42.140;24.760;2022-12-05T02:12:43;12.45;;;6.82;;
52718;SDS011;38616;42.140;24.760;2022-12-05T02:21:00;14.18;;;6.18;;
52718;SDS011;38616;42.140;24.760;2022-12-05T02:24:26;12.60;;;5.75;;
52718;SDS011;38616;42.140;24.760;2022-12-05T02:34:54;15.02;;;6.85;;
52718;SDS011;38616;42.140;24.760;2022-12-05T02:37:23;13.50;;;6.70;;
52718;SDS011;38616;42.140;24.760;2022-12-05T02:40:04;11.25;;;6.32;;
52718;SDS011;38616;42.140;24.760;2022-12-05T02:42:42;13.88;;;6.13;;
52718;SDS011;38616;42.140;24.760;2022-12-05T02:45:15;13.52;;;7.68;;
52718;SDS011;38616;42.140;24.760;2022-12-05T02:47:45;13.25;;;7.10;;
52718;SDS011;38616;42.140;24.760;2022-12-05T02:50:14;15.07;;;7.63;;
52718;SDS011;38616;42.140;24.760;2022-12-05T02:52:44;21.88;;;7.47;;
52718;SDS011;38616;42.140;24.760;2022-12-05T02:55:13;14.27;;;6.60;;
52718;SDS011;38616;42.140;24.760;2022-12-05T02:57:41;12.75;;;6.80;;
52718;SDS011;38616;42.140;24.760;2022-12-05T03:00:12;14.75;;;7.30;;
52718;SDS011;38616;42.140;24.760;2022-12-05T03:02:38;12.20;;;6.88;;
52718;SDS011;38616;42.140;24.760;2022-12-05T03:05:16;17.10;;;7.63;;
52718;SDS011;38616;42.140;24.760;2022-12-05T03:07:43;12.98;;;7.20;;
52718;SDS011;38616;42.140;24.760;2022-12-05T03:10:12;13.00;;;7.32;;
52718;SDS011;38616;42.140;24.760;2022-12-05T03:12:43;13.68;;;6.97;;
52718;SDS011;38616;42.140;24.760;2022-12-05T03:15:16;12.73;;;6.57;;
52718;SDS011;38616;42.140;24.760;2022-12-05T03:17:48;13.77;;;7.30;;
52718;SDS011;38616;42.140;24.760;2022-12-05T03:20:27;16.02;;;7.75;;
52718;SDS011;38616;42.140;24.760;2022-12-05T03:22:58;15.52;;;7.22;;
52718;SDS011;38616;42.140;24.760;2022-12-05T03:25:33;11.90;;;6.68;;
52718;SDS011;38616;42.140;24.760;2022-12-05T03:30:37;12.90;;;6.82;;
52718;SDS011;38616;42.140;24.760;2022-12-05T03:35:36;16.63;;;8.02;;
52718;SDS011;38616;42.140;24.760;2022-12-05T03:38:13;14.63;;;6.63;;
52718;SDS011;38616;42.140;24.760;2022-12-05T03:40:52;15.90;;;8.60;;
52718;SDS011;38616;42.140;24.760;2022-12-05T03:46:25;23.80;;;10.55;;
52718;SDS011;38616;42.140;24.760;2022-12-05T03:49:08;17.73;;;9.30;;
52718;SDS011;38616;42.140;24.760;2022-12-05T03:51:43;15.27;;;7.43;;
52718;SDS011;38616;42.140;24.760;2022-12-05T03:54:17;14.98;;;7.07;;
52718;SDS011;38616;42.140;24.760;2022-12-05T03:56:49;13.60;;;6.45;;
52718;SDS011;38616;42.140;24.760;2022-12-05T03:59:26;16.10;;;6.82;;
52718;SDS011;38616;42.140;24.760;2022-12-05T04:01:56;11.75;;;5.22;;
52718;SDS011;38616;42.140;24.760;2022-12-05T04:04:26;17.33;;;6.93;;
52718;SDS011;38616;42.140;24.760;2022-12-05T04:06:57;13.07;;;6.43;;
52718;SDS011;38616;42.140;24.760;2022-12-05T04:09:44;13.23;;;6.20;;
52718;SDS011;38616;42.140;24.760;2022-12-05T04:12:16;13.00;;;8.27;;
52718;SDS011;38616;42.140;24.760;2022-12-05T04:14:48;12.25;;;6.63;;
52718;SDS011;38616;42.140;24.760;2022-12-05T04:17:29;13.10;;;6.78;;
52718;SDS011;38616;42.140;24.760;2022-12-05T04:20:34;15.13;;;7.22;;
52718;SDS011;38616;42.140;24.760;2022-12-05T04:23:22;12.83;;;4.80;;
52718;SDS011;38616;42.140;24.760;2022-12-05T04:31:10;16.80;;;9.27;;
52718;SDS011;38616;42.140;24.760;2022-12-05T04:36:12;16.70;;;6.13;;
52718;SDS011;38616;42.140;24.760;2022-12-05T04:38:56;15.77;;;6.80;;
52718;SDS011;38616;42.140;24.760;2022-12-05T04:41:27;15.25;;;6.47;;
52718;SDS011;38616;42.140;24.760;2022-12-05T04:43:57;14.52;;;7.13;;
52718;SDS011;38616;42.140;24.760;2022-12-05T04:46:27;17.23;;;7.93;;
52718;SDS011;38616;42.140;24.760;2022-12-05T04:48:55;13.52;;;6.18;;
52718;SDS011;38616;42.140;24.760;2022-12-05T04:51:25;14.02;;;6.70;;
52718;SDS011;38616;42.140;24.760;2022-12-05T04:53:54;14.30;;;6.20;;
52718;SDS011;38616;42.140;24.760;2022-12-05T04:56:26;14.60;;;7.88;;
52718;SDS011;38616;42.140;24.760;2022-12-05T04:58:55;16.77;;;7.07;;
52718;SDS011;38616;42.140;24.760;2022-12-05T05:01:22;20.27;;;8.82;;
52718;SDS011;38616;42.140;24.760;2022-12-05T05:03:58;17.13;;;8.68;;
52718;SDS011;38616;42.140;24.760;2022-12-05T05:06:30;17.52;;;8.35;;
52718;SDS011;38616;42.140;24.760;2022-12-05T05:08:56;15.40;;;7.13;;
52718;SDS011;38616;42.140;24.760;2022-12-05T05:11:23;16.20;;;7.55;;
52718;SDS011;38616;42.140;24.760;2022-12-05T05:13:51;16.65;;;7.28;;
52718;SDS011;38616;42.140;24.760;2022-12-05T05:16:24;21.63;;;8.02;;
52718;SDS011;38616;42.140;24.760;2022-12-05T05:18:58;20.52;;;9.10;;
52718;SDS011;38616;42.140;24.760;2022-12-05T05:21:57;31.20;;;12.68;;
52718;SDS011;38616;42.140;24.760;2022-12-05T05:24:16;29.13;;;16.23;;
52718;SDS011;38616;42.140;24.760;2022-12-05T05:26:43;24.38;;;10.18;;
52718;SDS011;38616;42.140;24.760;2022-12-05T05:29:09;21.83;;;10.57;;
52718;SDS011;38616;42.140;24.760;2022-12-05T05:31:36;21.30;;;9.70;;
52718;SDS011;38616;42.140;24.760;2022-12-05T05:34:02;22.27;;;9.30;;
52718;SDS011;38616;42.140;24.760;2022-12-05T05:36:28;16.60;;;7.78;;
52718;SDS011;38616;42.140;24.760;2022-12-05T05:38:54;21.40;;;8.88;;
52718;SDS011;38616;42.140;24.760;2022-12-05T05:41:23;22.65;;;9.48;;
52718;SDS011;38616;42.140;24.760;2022-12-05T05:43:50;22.50;;;9.68;;
52718;SDS011;38616;42.140;24.760;2022-12-05T05:46:17;13.65;;;7.68;;
52718;SDS011;38616;42.140;24.760;2022-12-05T05:48:43;18.15;;;8.60;;
52718;SDS011;38616;42.140;24.760;2022-12-05T05:51:09;20.52;;;8.68;;
52718;SDS011;38616;42.140;24.760;2022-12-05T05:53:36;26.33;;;12.77;;
52718;SDS011;38616;42.140;24.760;2022-12-05T05:56:03;24.10;;;11.20;;
52718;SDS011;38616;42.140;24.760;2022-12-05T05:58:29;37.70;;;17.27;;
52718;SDS011;38616;42.140;24.760;2022-12-05T06:01:00;55.22;;;31.08;;
52718;SDS011;38616;42.140;24.760;2022-12-05T06:03:27;37.65;;;19.73;;
52718;SDS011;38616;42.140;24.760;2022-12-05T06:05:56;27.17;;;15.25;;
52718;SDS011;38616;42.140;24.760;2022-12-05T06:08:23;28.35;;;15.15;;
52718;SDS011;38616;42.140;24.760;2022-12-05T06:10:48;19.95;;;10.65;;
52718;SDS011;38616;42.140;24.760;2022-12-05T06:13:14;23.10;;;9.20;;
52718;SDS011;38616;42.140;24.760;2022-12-05T06:15:39;24.05;;;9.68;;
52718;SDS011;38616;42.140;24.760;2022-12-05T06:18:04;21.20;;;8.70;;
52718;SDS011;38616;42.140;24.760;2022-12-05T06:20:30;44.72;;;20.83;;
52718;SDS011;38616;42.140;24.760;2022-12-05T06:22:55;33.15;;;13.90;;
52718;SDS011;38616;42.140;24.760;2022-12-05T06:25:21;24.30;;;11.27;;
52718;SDS011;38616;42.140;24.760;2022-12-05T06:27:46;33.42;;;13.27;;
52718;SDS011;38616;42.140;24.760;2022-12-05T06:30:11;24.05;;;11.05;;
52718;SDS011;38616;42.140;24.760;2022-12-05T06:32:37;23.95;;;11.10;;
52718;SDS011;38616;42.140;24.760;2022-12-05T06:35:03;26.23;;;10.05;;
52718;SDS011;38616;42.140;24.760;2022-12-05T06:37:35;22.98;;;10.82;;
52718;SDS011;38616;42.140;24.760;2022-12-05T06:40:03;29.67;;;10.20;;
52718;SDS011;38616;42.140;24.760;2022-12-05T06:42:30;20.27;;;10.05;;
52718;SDS011;38616;42.140;24.760;2022-12-05T06:44:55;23.40;;;9.48;;
52718;SDS011;38616;42.140;24.760;2022-12-05T06:47:21;19.70;;;8.80;;
52718;SDS011;38616;42.140;24.760;2022-12-05T06:49:46;28.13;;;10.60;;
52718;SDS011;38616;42.140;24.760;2022-12-05T06:52:11;39.03;;;16.50;;
52718;SDS011;38616;42.140;24.760;2022-12-05T06:54:37;29.60;;;12.00;;
52718;SDS011;38616;42.140;24.760;2022-12-05T06:57:02;29.42;;;12.65;;
52718;SDS011;38616;42.140;24.760;2022-12-05T06:59:27;24.73;;;11.63;;
52718;SDS011;38616;42.140;24.760;2022-12-05T07:01:53;34.17;;;12.80;;
52718;SDS011;38616;42.140;24.760;2022-12-05T07:04:19;34.03;;;12.20;;
52718;SDS011;38616;42.140;24.760;2022-12-05T07:06:48;41.72;;;11.55;;
52718;SDS011;38616;42.140;24.760;2022-12-05T07:09:14;43.83;;;11.48;;
52718;SDS011;38616;42.140;24.760;2022-12-05T07:11:41;31.98;;;11.05;;
52718;SDS011;38616;42.140;24.760;2022-12-05T07:14:07;33.60;;;10.65;;
52718;SDS011;38616;42.140;24.760;2022-12-05T07:16:34;47.20;;;12.18;;
52718;SDS011;38616;42.140;24.760;2022-12-05T07:18:59;39.17;;;12.00;;
52718;SDS011;38616;42.140;24.760;2022-12-05T07:21:25;40.33;;;10.75;;
52718;SDS011;38616;42.140;24.760;2022-12-05T07:23:50;30.08;;;10.38;;
52718;SDS011;38616;42.140;24.760;2022-12-05T07:26:17;32.13;;;11.25;;
52718;SDS011;38616;42.140;24.760;2022-12-05T07:28:45;32.72;;;11.32;;
52718;SDS011;38616;42.140;24.760;2022-12-05T07:31:12;34.05;;;11.10;;
52718;SDS011;38616;42.140;24.760;2022-12-05T07:33:46;32.97;;;12.55;;
52718;SDS011;38616;42.140;24.760;2022-12-05T07:36:13;41.13;;;14.45;;
52718;SDS011;38616;42.140;24.760;2022-12-05T07:38:41;37.15;;;14.52;;
52718;SDS011;38616;42.140;24.760;2022-12-05T07:41:13;34.58;;;14.55;;
52718;SDS011;38616;42.140;24.760;2022-12-05T07:43:44;28.75;;;13.30;;
52718;SDS011;38616;42.140;24.760;2022-12-05T07:46:09;38.05;;;18.42;;
52718;SDS011;38616;42.140;24.760;2022-12-05T07:48:38;52.17;;;21.45;;
52718;SDS011;38616;42.140;24.760;2022-12-05T07:51:04;43.00;;;20.80;;
52718;SDS011;38616;42.140;24.760;2022-12-05T07:53:31;39.30;;;18.67;;
52718;SDS011;38616;42.140;24.760;2022-12-05T07:55:58;38.25;;;18.65;;
52718;SDS011;38616;42.140;24.760;2022-12-05T07:58:24;34.90;;;16.23;;
52718;SDS011;38616;42.140;24.760;2022-12-05T08:00:51;38.00;;;16.92;;
52718;SDS011;38616;42.140;24.760;2022-12-05T08:03:17;46.58;;;18.48;;
52718;SDS011;38616;42.140;24.760;2022-12-05T08:05:42;43.58;;;19.13;;
52718;SDS011;38616;42.140;24.760;2022-12-05T08:08:08;40.22;;;19.75;;
52718;SDS011;38616;42.140;24.760;2022-12-05T08:10:33;37.42;;;17.48;;
52718;SDS011;38616;42.140;24.760;2022-12-05T08:12:59;38.10;;;18.38;;
52718;SDS011;38616;42.140;24.760;2022-12-05T08:15:24;43.55;;;17.92;;
52718;SDS011;38616;42.140;24.760;2022-12-05T08:17:50;44.10;;;17.88;;
52718;SDS011;38616;42.140;24.760;2022-12-05T08:20:15;42.10;;;17.58;;
52718;SDS011;38616;42.140;24.760;2022-12-05T08:22:41;40.40;;;18.83;;
52718;SDS011;38616;42.140;24.760;2022-12-05T08:25:06;42.25;;;18.92;;
52718;SDS011;38616;42.140;24.760;2022-12-05T08:27:32;43.25;;;18.48;;
52718;SDS011;38616;42.140;24.760;2022-12-05T08:29:57;43.72;;;20.70;;
52718;SDS011;38616;42.140;24.760;2022-12-05T08:32:23;45.92;;;18.60;;
52718;SDS011;38616;42.140;24.760;2022-12-05T08:34:48;45.95;;;17.90;;
52718;SDS011;38616;42.140;24.760;2022-12-05T08:37:14;38.65;;;18.85;;
52718;SDS011;38616;42.140;24.760;2022-12-05T08:39:39;45.17;;;19.50;;
52718;SDS011;38616;42.140;24.760;2022-12-05T08:42:04;45.88;;;21.25;;
52718;SDS011;38616;42.140;24.760;2022-12-05T08:44:30;39.63;;;19.42;;
52718;SDS011;38616;42.140;24.760;2022-12-05T08:46:55;49.03;;;21.15;;
52718;SDS011;38616;42.140;24.760;2022-12-05T08:49:21;42.60;;;21.27;;
52718;SDS011;38616;42.140;24.760;2022-12-05T08:51:46;46.95;;;20.30;;
52718;SDS011;38616;42.140;24.760;2022-12-05T08:54:12;44.30;;;19.08;;
52718;SDS011;38616;42.140;24.760;2022-12-05T08:56:38;43.03;;;19.17;;
52718;SDS011;38616;42.140;24.760;2022-12-05T08:59:04;34.85;;;17.27;;
52718;SDS011;38616;42.140;24.760;2022-12-05T09:01:30;48.03;;;21.52;;
52718;SDS011;38616;42.140;24.760;2022-12-05T09:03:57;44.78;;;20.52;;
52718;SDS011;38616;42.140;24.760;2022-12-05T09:06:28;45.38;;;18.08;;
52718;SDS011;38616;42.140;24.760;2022-12-05T09:08:55;48.92;;;23.02;;
52718;SDS011;38616;42.140;24.760;2022-12-05T09:11:22;52.85;;;21.40;;
52718;SDS011;38616;42.140;24.760;2022-12-05T09:13:51;44.25;;;21.48;;
52718;SDS011;38616;42.140;24.760;2022-12-05T09:16:21;47.42;;;24.63;;
52718;SDS011;38616;42.140;24.760;2022-12-05T09:18:49;50.83;;;24.70;;
52718;SDS011;38616;42.140;24.760;2022-12-05T09:21:16;49.00;;;25.77;;
52718;SDS011;38616;42.140;24.760;2022-12-05T09:23:46;41.75;;;22.55;;
52718;SDS011;38616;42.140;24.760;2022-12-05T09:26:13;48.58;;;23.13;;
52718;SDS011;38616;42.140;24.760;2022-12-05T09:28:41;46.20;;;24.27;;
52718;SDS011;38616;42.140;24.760;2022-12-05T09:31:09;56.17;;;25.02;;
52718;SDS011;38616;42.140;24.760;2022-12-05T09:33:36;45.67;;;24.30;;
52718;SDS011;38616;42.140;24.760;2022-12-05T09:36:03;44.67;;;23.52;;
52718;SDS011;38616;42.140;24.760;2022-12-05T09:38:29;53.45;;;26.88;;
52718;SDS011;38616;42.140;24.760;2022-12-05T09:46:01;45.67;;;23.60;;
52718;SDS011;38616;42.140;24.760;2022-12-05T09:48:43;41.75;;;20.50;;
52718;SDS011;38616;42.140;24.760;2022-12-05T09:51:09;37.75;;;20.38;;
52718;SDS011;38616;42.140;24.760;2022-12-05T09:53:37;39.42;;;20.85;;
52718;SDS011;38616;42.140;24.760;2022-12-05T10:06:23;29.88;;;15.98;;
52718;SDS011;38616;42.140;24.760;2022-12-05T10:14:34;39.08;;;15.50;;
52718;SDS011;38616;42.140;24.760;2022-12-05T10:17:15;41.05;;;17.08;;
52718;SDS011;38616;42.140;24.760;2022-12-05T10:19:50;31.17;;;16.40;;
52718;SDS011;38616;42.140;24.760;2022-12-05T10:22:39;30.13;;;15.40;;
52718;SDS011;38616;42.140;24.760;2022-12-05T10:25:11;40.72;;;18.35;;
52718;SDS011;38616;42.140;24.760;2022-12-05T10:27:59;38.95;;;18.30;;
52718;SDS011;38616;42.140;24.760;2022-12-05T10:30:28;34.47;;;16.15;;
52718;SDS011;38616;42.140;24.760;2022-12-05T10:33:03;37.42;;;16.58;;
52718;SDS011;38616;42.140;24.760;2022-12-05T10:35:38;34.35;;;15.45;;
52718;SDS011;38616;42.140;24.760;2022-12-05T10:40:51;35.03;;;18.98;;
52718;SDS011;38616;42.140;24.760;2022-12-05T10:43:23;36.17;;;18.15;;
52718;SDS011;38616;42.140;24.760;2022-12-05T10:45:50;34.22;;;18.20;;
52718;SDS011;38616;42.140;24.760;2022-12-05T10:48:16;37.80;;;19.75;;
52718;SDS011;38616;42.140;24.760;2022-12-05T10:50:44;45.95;;;21.25;;
52718;SDS011;38616;42.140;24.760;2022-12-05T10:53:57;41.03;;;21.38;;
52718;SDS011;38616;42.140;24.760;2022-12-05T10:59:07;41.03;;;20.00;;
52718;SDS011;38616;42.140;24.760;2022-12-05T11:01:34;39.15;;;20.42;;
52718;SDS011;38616;42.140;24.760;2022-12-05T11:04:05;30.30;;;14.27;;
52718;SDS011;38616;42.140;24.760;2022-12-05T11:06:48;39.80;;;19.58;;
52718;SDS011;38616;42.140;24.760;2022-12-05T11:09:40;42.67;;;22.05;;
52718;SDS011;38616;42.140;24.760;2022-12-05T11:12:24;49.47;;;25.10;;
52718;SDS011;38616;42.140;24.760;2022-12-05T11:14:54;46.95;;;24.05;;
52718;SDS011;38616;42.140;24.760;2022-12-05T11:17:29;42.10;;;20.30;;
52718;SDS011;38616;42.140;24.760;2022-12-05T11:19:56;38.05;;;19.15;;
52718;SDS011;38616;42.140;24.760;2022-12-05T11:22:28;32.92;;;14.32;;
52718;SDS011;38616;42.140;24.760;2022-12-05T11:24:58;24.07;;;11.70;;
52718;SDS011;38616;42.140;24.760;2022-12-05T11:27:28;27.63;;;13.38;;
52718;SDS011;38616;42.140;24.760;2022-12-05T11:29:59;36.20;;;14.32;;
52718;SDS011;38616;42.140;24.760;2022-12-05T11:32:29;28.85;;;15.00;;
52718;SDS011;38616;42.140;24.760;2022-12-05T11:35:17;28.08;;;13.90;;
52718;SDS011;38616;42.140;24.760;2022-12-05T11:37:57;22.90;;;11.15;;
52718;SDS011;38616;42.140;24.760;2022-12-05T11:40:35;24.35;;;11.65;;
52718;SDS011;38616;42.140;24.760;2022-12-05T12:07:57;27.15;;;12.30;;
52718;SDS011;38616;42.140;24.760;2022-12-05T12:10:35;31.45;;;13.68;;
52718;SDS011;38616;42.140;24.760;2022-12-05T12:13:13;26.27;;;12.27;;
52718;SDS011;38616;42.140;24.760;2022-12-05T12:21:18;24.25;;;11.40;;
52718;SDS011;38616;42.140;24.760;2022-12-05T12:24:18;31.45;;;11.73;;
52718;SDS011;38616;42.140;24.760;2022-12-05T12:32:29;21.60;;;12.40;;
52718;SDS011;38616;42.140;24.760;2022-12-05T12:40:49;36.58;;;16.75;;
52718;SDS011;38616;42.140;24.760;2022-12-05T12:43:40;24.70;;;13.07;;
52718;SDS011;38616;42.140;24.760;2022-12-05T12:51:53;30.33;;;14.05;;
52718;SDS011;38616;42.140;24.760;2022-12-05T12:54:27;28.17;;;14.40;;
52718;SDS011;38616;42.140;24.760;2022-12-05T13:02:47;26.17;;;11.63;;
52718;SDS011;38616;42.140;24.760;2022-12-05T13:10:50;16.85;;;6.88;;
52718;SDS011;38616;42.140;24.760;2022-12-05T13:13:20;23.88;;;10.10;;
52718;SDS011;38616;42.140;24.760;2022-12-05T13:15:49;22.58;;;9.88;;
52718;SDS011;38616;42.140;24.760;2022-12-05T13:18:18;26.60;;;10.23;;
52718;SDS011;38616;42.140;24.760;2022-12-05T13:20:47;26.40;;;12.70;;
52718;SDS011;38616;42.140;24.760;2022-12-05T13:23:15;22.00;;;10.43;;
52718;SDS011;38616;42.140;24.760;2022-12-05T13:25:43;85.90;;;27.50;;
52718;SDS011;38616;42.140;24.760;2022-12-05T13:28:30;49.85;;;18.70;;
52718;SDS011;38616;42.140;24.760;2022-12-05T13:33:32;35.53;;;16.65;;
52718;SDS011;38616;42.140;24.760;2022-12-05T14:59:44;131.93;;;47.05;;
52718;SDS011;38616;42.140;24.760;2022-12-05T15:02:18;206.68;;;75.57;;
52718;SDS011;38616;42.140;24.760;2022-12-05T15:04:51;90.82;;;36.60;;
52718;SDS011;38616;42.140;24.760;2022-12-05T15:07:27;55.22;;;24.02;;
52718;SDS011;38616;42.140;24.760;2022-12-05T15:10:15;34.53;;;16.05;;
52718;SDS011;38616;42.140;24.760;2022-12-05T15:12:46;25.65;;;12.02;;
52718;SDS011;38616;42.140;24.760;2022-12-05T15:18:11;24.77;;;13.50;;
52718;SDS011;38616;42.140;24.760;2022-12-05T15:23:37;30.90;;;14.60;;
52718;SDS011;38616;42.140;24.760;2022-12-05T15:26:16;26.00;;;12.88;;
52718;SDS011;38616;42.140;24.760;2022-12-05T15:31:29;27.38;;;12.63;;
52718;SDS011;38616;42.140;24.760;2022-12-05T15:33:57;26.67;;;12.95;;
52718;SDS011;38616;42.140;24.760;2022-12-05T15:36:28;28.40;;;13.90;;
52718;SDS011;38616;42.140;24.760;2022-12-05T15:39:03;36.88;;;19.30;;
52718;SDS011;38616;42.140;24.760;2022-12-05T15:41:42;32.35;;;14.18;;
52718;SDS011;38616;42.140;24.760;2022-12-05T15:44:08;30.73;;;14.07;;
52718;SDS011;38616;42.140;24.760;2022-12-05T15:46:35;30.40;;;13.90;;
52718;SDS011;38616;42.140;24.760;2022-12-05T15:49:00;33.42;;;13.63;;
52718;SDS011;38616;42.140;24.760;2022-12-05T15:51:41;32.80;;;14.75;;
52718;SDS011;38616;42.140;24.760;2022-12-05T15:54:19;31.88;;;14.52;;
52718;SDS011;38616;42.140;24.760;2022-12-05T15:57:14;31.85;;;14.93;;
52718;SDS011;38616;42.140;24.760;2022-12-05T15:59:47;32.55;;;14.57;;
52718;SDS011;38616;42.140;24.760;2022-12-05T16:02:21;71.45;;;25.25;;
52718;SDS011;38616;42.140;24.760;2022-12-05T16:04:54;39.58;;;16.90;;
52718;SDS011;38616;42.140;24.760;2022-12-05T16:07:22;35.90;;;15.88;;
52718;SDS011;38616;42.140;24.760;2022-12-05T16:09:53;25.92;;;13.75;;
52718;SDS011;38616;42.140;24.760;2022-12-05T16:14:56;35.75;;;16.35;;
52718;SDS011;38616;42.140;24.760;2022-12-05T16:17:25;30.80;;;15.70;;
52718;SDS011;38616;42.140;24.760;2022-12-05T16:19:52;33.13;;;15.18;;
52718;SDS011;38616;42.140;24.760;2022-12-05T16:22:20;35.13;;;16.80;;
52718;SDS011;38616;42.140;24.760;2022-12-05T16:27:25;33.85;;;15.75;;
52718;SDS011;38616;42.140;24.760;2022-12-05T16:32:36;34.28;;;17.33;;
52718;SDS011;38616;42.140;24.760;2022-12-05T16:35:03;30.25;;;14.50;;
52718;SDS011;38616;42.140;24.760;2022-12-05T16:38:01;32.90;;;16.67;;
52718;SDS011;38616;42.140;24.760;2022-12-05T16:40:27;34.25;;;18.17;;
52718;SDS011;38616;42.140;24.760;2022-12-05T16:43:03;40.25;;;18.40;;
52718;SDS011;38616;42.140;24.760;2022-12-05T16:45:40;40.33;;;17.60;;
52718;SDS011;38616;42.140;24.760;2022-12-05T16:48:15;37.10;;;17.73;;
52718;SDS011;38616;42.140;24.760;2022-12-05T16:50:43;46.92;;;20.02;;
52718;SDS011;38616;42.140;24.760;2022-12-05T16:55:38;42.10;;;20.52;;
52718;SDS011;38616;42.140;24.760;2022-12-05T16:58:07;62.63;;;28.02;;
52718;SDS011;38616;42.140;24.760;2022-12-05T17:00:36;65.78;;;29.80;;
52718;SDS011;38616;42.140;24.760;2022-12-05T17:03:02;63.70;;;28.70;;
52718;SDS011;38616;42.140;24.760;2022-12-05T17:05:27;57.50;;;26.98;;
52718;SDS011;38616;42.140;24.760;2022-12-05T17:07:54;250.57;;;94.32;;
52718;SDS011;38616;42.140;24.760;2022-12-05T17:10:19;230.45;;;83.53;;
52718;SDS011;38616;42.140;24.760;2022-12-05T17:12:44;76.32;;;32.17;;
52718;SDS011;38616;42.140;24.760;2022-12-05T17:15:15;92.40;;;37.63;;
52718;SDS011;38616;42.140;24.760;2022-12-05T17:17:42;72.15;;;29.20;;
52718;SDS011;38616;42.140;24.760;2022-12-05T17:20:08;49.30;;;22.20;;
52718;SDS011;38616;42.140;24.760;2022-12-05T17:22:33;47.55;;;22.65;;
52718;SDS011;38616;42.140;24.760;2022-12-05T17:24:59;49.55;;;21.73;;
52718;SDS011;38616;42.140;24.760;2022-12-05T17:27:24;48.97;;;24.45;;
52718;SDS011;38616;42.140;24.760;2022-12-05T17:29:50;40.38;;;19.05;;
52718;SDS011;38616;42.140;24.760;2022-12-05T17:32:15;34.47;;;16.48;;
52718;SDS011;38616;42.140;24.760;2022-12-05T17:34:41;35.35;;;18.70;;
52718;SDS011;38616;42.140;24.760;2022-12-05T17:37:06;39.15;;;18.65;;
52718;SDS011;38616;42.140;24.760;2022-12-05T17:39:31;39.55;;;20.88;;
52718;SDS011;38616;42.140;24.760;2022-12-05T17:41:57;43.17;;;19.63;;
52718;SDS011;38616;42.140;24.760;2022-12-05T17:44:22;44.78;;;20.75;;
52718;SDS011;38616;42.140;24.760;2022-12-05T17:46:47;41.60;;;21.15;;
52718;SDS011;38616;42.140;24.760;2022-12-05T17:49:13;44.25;;;20.83;;
52718;SDS011;38616;42.140;24.760;2022-12-05T17:51:41;36.28;;;18.35;;
52718;SDS011;38616;42.140;24.760;2022-12-05T17:54:07;40.85;;;19.15;;
52718;SDS011;38616;42.140;24.760;2022-12-05T17:56:33;42.28;;;19.75;;
52718;SDS011;38616;42.140;24.760;2022-12-05T17:58:59;40.72;;;20.45;;
52718;SDS011;38616;42.140;24.760;2022-12-05T18:01:24;47.90;;;20.95;;
52718;SDS011;38616;42.140;24.760;2022-12-05T18:03:50;40.05;;;18.55;;
52718;SDS011;38616;42.140;24.760;2022-12-05T18:06:15;41.78;;;19.10;;
52718;SDS011;38616;42.140;24.760;2022-12-05T18:08:41;40.90;;;17.65;;
52718;SDS011;38616;42.140;24.760;2022-12-05T18:11:09;44.37;;;18.83;;
52718;SDS011;38616;42.140;24.760;2022-12-05T18:13:36;45.00;;;18.80;;